sensor_id;sensor_type;location;lat;lon;timestamp;P1;durP1;ratioP1;P2;durP2;ratioP2
24357;SDS011;13668;52.154;5.580;2022-09-01T00:02:18;2.05;;;1.08;;
24357;SDS011;13668;52.154;5.580;2022-09-01T00:04:44;2.65;;;1.08;;
24357;SDS011;13668;52.154;5.580;2022-09-01T00:07:11;0.90;;;0.90;;
24357;SDS011;13668;52.154;5.580;2022-09-01T00:09:38;1.55;;;1.20;;
24357;SDS011;13668;52.154;5.580;2022-09-01T00:12:06;5.15;;;1.20;;
24357;SDS011;13668;52.154;5.580;2022-09-01T00:14:33;1.75;;;0.95;;
24357;SDS011;13668;52.154;5.580;2022-09-01T00:17:01;2.65;;;1.10;;
24357;SDS011;13668;52.154;5.580;2022-09-01T00:19:27;3.60;;;1.33;;
24357;SDS011;13668;52.154;5.580;2022-09-01T00:21:53;2.90;;;0.90;;
24357;SDS011;13668;52.154;5.580;2022-09-01T00:24:20;1.20;;;1.00;;
24357;SDS011;13668;52.154;5.580;2022-09-01T00:26:46;1.23;;;1.13;;
24357;SDS011;13668;52.154;5.580;2022-09-01T00:29:12;2.65;;;1.30;;
24357;SDS011;13668;52.154;5.580;2022-09-01T00:31:39;3.00;;;1.13;;
24357;SDS011;13668;52.154;5.580;2022-09-01T00:34:05;1.48;;;1.20;;
24357;SDS011;13668;52.154;5.580;2022-09-01T00:36:31;1.42;;;1.20;;
24357;SDS011;13668;52.154;5.580;2022-09-01T00:38:57;2.55;;;1.20;;
24357;SDS011;13668;52.154;5.580;2022-09-01T00:41:24;1.48;;;1.20;;
24357;SDS011;13668;52.154;5.580;2022-09-01T00:43:52;1.30;;;1.05;;
24357;SDS011;13668;52.154;5.580;2022-09-01T00:46:23;2.97;;;1.38;;
24357;SDS011;13668;52.154;5.580;2022-09-01T00:48:57;3.15;;;1.40;;
24357;SDS011;13668;52.154;5.580;2022-09-01T00:51:24;3.97;;;1.35;;
24357;SDS011;13668;52.154;5.580;2022-09-01T00:53:50;2.03;;;1.60;;
24357;SDS011;13668;52.154;5.580;2022-09-01T00:56:16;4.00;;;1.55;;
24357;SDS011;13668;52.154;5.580;2022-09-01T00:58:42;1.45;;;1.30;;
24357;SDS011;13668;52.154;5.580;2022-09-01T01:01:09;2.83;;;1.50;;
24357;SDS011;13668;52.154;5.580;2022-09-01T01:03:36;1.80;;;1.25;;
24357;SDS011;13668;52.154;5.580;2022-09-01T01:06:06;3.30;;;1.63;;
24357;SDS011;13668;52.154;5.580;2022-09-01T01:08:33;1.98;;;1.40;;
24357;SDS011;13668;52.154;5.580;2022-09-01T01:11:03;1.67;;;1.45;;
24357;SDS011;13668;52.154;5.580;2022-09-01T01:13:30;4.13;;;1.65;;
24357;SDS011;13668;52.154;5.580;2022-09-01T01:16:00;2.83;;;2.00;;
24357;SDS011;13668;52.154;5.580;2022-09-01T01:18:26;2.47;;;1.70;;
24357;SDS011;13668;52.154;5.580;2022-09-01T01:20:55;5.20;;;1.67;;
24357;SDS011;13668;52.154;5.580;2022-09-01T01:23:47;2.38;;;1.30;;
24357;SDS011;13668;52.154;5.580;2022-09-01T01:26:14;1.40;;;1.30;;
24357;SDS011;13668;52.154;5.580;2022-09-01T01:28:41;3.20;;;1.45;;
24357;SDS011;13668;52.154;5.580;2022-09-01T01:31:09;1.35;;;1.25;;
24357;SDS011;13668;52.154;5.580;2022-09-01T01:36:06;3.35;;;1.45;;
24357;SDS011;13668;52.154;5.580;2022-09-01T01:38:34;1.55;;;1.42;;
24357;SDS011;13668;52.154;5.580;2022-09-01T01:41:03;2.67;;;1.60;;
24357;SDS011;13668;52.154;5.580;2022-09-01T01:43:30;3.03;;;1.58;;
24357;SDS011;13668;52.154;5.580;2022-09-01T01:45:56;2.47;;;1.75;;
24357;SDS011;13668;52.154;5.580;2022-09-01T01:48:27;2.60;;;1.45;;
24357;SDS011;13668;52.154;5.580;2022-09-01T01:50:53;2.78;;;1.67;;
24357;SDS011;13668;52.154;5.580;2022-09-01T01:53:22;2.15;;;1.52;;
24357;SDS011;13668;52.154;5.580;2022-09-01T01:55:48;1.95;;;1.70;;
24357;SDS011;13668;52.154;5.580;2022-09-01T01:58:15;1.75;;;1.65;;
24357;SDS011;13668;52.154;5.580;2022-09-01T02:00:43;3.05;;;1.90;;
24357;SDS011;13668;52.154;5.580;2022-09-01T02:03:10;4.97;;;1.92;;
24357;SDS011;13668;52.154;5.580;2022-09-01T02:05:37;3.35;;;1.80;;
24357;SDS011;13668;52.154;5.580;2022-09-01T02:08:05;2.50;;;1.90;;
24357;SDS011;13668;52.154;5.580;2022-09-01T02:10:32;3.78;;;1.70;;
24357;SDS011;13668;52.154;5.580;2022-09-01T02:13:00;2.15;;;1.70;;
24357;SDS011;13668;52.154;5.580;2022-09-01T02:15:32;2.40;;;1.70;;
24357;SDS011;13668;52.154;5.580;2022-09-01T02:18:00;1.88;;;1.42;;
24357;SDS011;13668;52.154;5.580;2022-09-01T02:20:26;4.57;;;2.05;;
24357;SDS011;13668;52.154;5.580;2022-09-01T02:22:56;2.53;;;1.77;;
24357;SDS011;13668;52.154;5.580;2022-09-01T02:25:34;2.38;;;1.50;;
24357;SDS011;13668;52.154;5.580;2022-09-01T02:28:01;1.83;;;1.65;;
24357;SDS011;13668;52.154;5.580;2022-09-01T02:30:28;1.90;;;1.80;;
24357;SDS011;13668;52.154;5.580;2022-09-01T02:32:57;2.80;;;1.85;;
24357;SDS011;13668;52.154;5.580;2022-09-01T02:35:23;2.00;;;1.67;;
24357;SDS011;13668;52.154;5.580;2022-09-01T02:37:55;2.42;;;1.90;;
24357;SDS011;13668;52.154;5.580;2022-09-01T02:40:24;2.67;;;2.00;;
24357;SDS011;13668;52.154;5.580;2022-09-01T02:42:50;2.00;;;1.67;;
24357;SDS011;13668;52.154;5.580;2022-09-01T02:45:19;2.88;;;1.80;;
24357;SDS011;13668;52.154;5.580;2022-09-01T02:47:51;3.20;;;1.77;;
24357;SDS011;13668;52.154;5.580;2022-09-01T02:50:18;2.33;;;1.63;;
24357;SDS011;13668;52.154;5.580;2022-09-01T02:52:46;2.38;;;2.10;;
24357;SDS011;13668;52.154;5.580;2022-09-01T02:55:16;3.50;;;1.85;;
24357;SDS011;13668;52.154;5.580;2022-09-01T02:57:44;2.28;;;1.85;;
24357;SDS011;13668;52.154;5.580;2022-09-01T03:00:12;2.08;;;1.70;;
24357;SDS011;13668;52.154;5.580;2022-09-01T03:02:47;2.35;;;2.13;;
24357;SDS011;13668;52.154;5.580;2022-09-01T03:05:15;1.75;;;1.58;;
24357;SDS011;13668;52.154;5.580;2022-09-01T03:07:49;3.05;;;2.10;;
24357;SDS011;13668;52.154;5.580;2022-09-01T03:10:20;2.40;;;1.73;;
24357;SDS011;13668;52.154;5.580;2022-09-01T03:12:51;2.83;;;2.05;;
24357;SDS011;13668;52.154;5.580;2022-09-01T03:15:17;5.65;;;2.08;;
24357;SDS011;13668;52.154;5.580;2022-09-01T03:17:42;4.10;;;2.00;;
24357;SDS011;13668;52.154;5.580;2022-09-01T03:20:12;3.75;;;1.88;;
24357;SDS011;13668;52.154;5.580;2022-09-01T03:22:38;2.83;;;2.30;;
24357;SDS011;13668;52.154;5.580;2022-09-01T03:25:04;6.25;;;2.22;;
24357;SDS011;13668;52.154;5.580;2022-09-01T03:27:31;2.35;;;1.95;;
24357;SDS011;13668;52.154;5.580;2022-09-01T03:29:57;2.33;;;2.13;;
24357;SDS011;13668;52.154;5.580;2022-09-01T03:32:23;2.22;;;2.03;;
24357;SDS011;13668;52.154;5.580;2022-09-01T03:34:49;4.43;;;1.92;;
24357;SDS011;13668;52.154;5.580;2022-09-01T03:37:15;3.00;;;2.13;;
24357;SDS011;13668;52.154;5.580;2022-09-01T03:39:41;2.00;;;1.70;;
24357;SDS011;13668;52.154;5.580;2022-09-01T03:42:07;3.92;;;1.77;;
24357;SDS011;13668;52.154;5.580;2022-09-01T03:44:43;3.30;;;2.10;;
24357;SDS011;13668;52.154;5.580;2022-09-01T03:47:09;3.35;;;1.83;;
24357;SDS011;13668;52.154;5.580;2022-09-01T03:49:35;4.00;;;2.35;;
24357;SDS011;13668;52.154;5.580;2022-09-01T03:52:03;4.25;;;2.20;;
24357;SDS011;13668;52.154;5.580;2022-09-01T03:54:32;2.33;;;1.95;;
24357;SDS011;13668;52.154;5.580;2022-09-01T03:57:01;2.05;;;1.80;;
24357;SDS011;13668;52.154;5.580;2022-09-01T03:59:30;2.10;;;2.00;;
24357;SDS011;13668;52.154;5.580;2022-09-01T04:01:56;2.38;;;1.75;;
24357;SDS011;13668;52.154;5.580;2022-09-01T04:04:23;3.25;;;1.95;;
24357;SDS011;13668;52.154;5.580;2022-09-01T04:06:49;1.70;;;1.60;;
24357;SDS011;13668;52.154;5.580;2022-09-01T04:09:15;1.85;;;1.73;;
24357;SDS011;13668;52.154;5.580;2022-09-01T04:11:41;2.95;;;1.90;;
24357;SDS011;13668;52.154;5.580;2022-09-01T04:14:10;1.85;;;1.73;;
24357;SDS011;13668;52.154;5.580;2022-09-01T04:16:36;2.10;;;1.90;;
24357;SDS011;13668;52.154;5.580;2022-09-01T04:19:21;1.95;;;1.70;;
24357;SDS011;13668;52.154;5.580;2022-09-01T04:21:57;4.38;;;1.73;;
24357;SDS011;13668;52.154;5.580;2022-09-01T04:24:24;3.20;;;2.10;;
24357;SDS011;13668;52.154;5.580;2022-09-01T04:26:52;2.03;;;1.67;;
24357;SDS011;13668;52.154;5.580;2022-09-01T04:29:19;2.10;;;1.90;;
24357;SDS011;13668;52.154;5.580;2022-09-01T04:31:51;2.97;;;1.80;;
24357;SDS011;13668;52.154;5.580;2022-09-01T04:34:18;1.95;;;1.75;;
24357;SDS011;13668;52.154;5.580;2022-09-01T04:36:44;1.85;;;1.50;;
24357;SDS011;13668;52.154;5.580;2022-09-01T04:39:10;1.98;;;1.88;;
24357;SDS011;13668;52.154;5.580;2022-09-01T04:41:38;2.42;;;1.77;;
24357;SDS011;13668;52.154;5.580;2022-09-01T04:44:05;4.28;;;1.85;;
24357;SDS011;13668;52.154;5.580;2022-09-01T04:46:33;1.67;;;1.52;;
24357;SDS011;13668;52.154;5.580;2022-09-01T04:49:00;2.75;;;1.98;;
24357;SDS011;13668;52.154;5.580;2022-09-01T04:51:30;2.22;;;1.77;;
24357;SDS011;13668;52.154;5.580;2022-09-01T04:53:57;1.80;;;1.70;;
24357;SDS011;13668;52.154;5.580;2022-09-01T04:56:24;1.88;;;1.77;;
24357;SDS011;13668;52.154;5.580;2022-09-01T04:58:50;2.42;;;1.88;;
24357;SDS011;13668;52.154;5.580;2022-09-01T05:01:20;2.10;;;1.90;;
24357;SDS011;13668;52.154;5.580;2022-09-01T05:03:47;2.63;;;1.65;;
24357;SDS011;13668;52.154;5.580;2022-09-01T05:06:20;4.18;;;1.92;;
24357;SDS011;13668;52.154;5.580;2022-09-01T05:08:46;3.03;;;1.75;;
24357;SDS011;13668;52.154;5.580;2022-09-01T05:11:13;3.45;;;1.98;;
24357;SDS011;13668;52.154;5.580;2022-09-01T05:13:43;3.13;;;1.92;;
24357;SDS011;13668;52.154;5.580;2022-09-01T05:16:10;2.88;;;1.95;;
24357;SDS011;13668;52.154;5.580;2022-09-01T05:18:37;2.85;;;1.75;;
24357;SDS011;13668;52.154;5.580;2022-09-01T05:21:05;2.95;;;1.80;;
24357;SDS011;13668;52.154;5.580;2022-09-01T05:23:39;3.50;;;2.08;;
24357;SDS011;13668;52.154;5.580;2022-09-01T05:26:05;1.83;;;1.70;;
24357;SDS011;13668;52.154;5.580;2022-09-01T05:28:38;2.70;;;1.90;;
24357;SDS011;13668;52.154;5.580;2022-09-01T05:31:05;3.20;;;2.00;;
24357;SDS011;13668;52.154;5.580;2022-09-01T05:33:31;2.72;;;1.88;;
24357;SDS011;13668;52.154;5.580;2022-09-01T05:35:58;2.88;;;1.77;;
24357;SDS011;13668;52.154;5.580;2022-09-01T05:38:25;2.75;;;1.85;;
24357;SDS011;13668;52.154;5.580;2022-09-01T05:41:10;3.92;;;2.03;;
24357;SDS011;13668;52.154;5.580;2022-09-01T05:43:39;2.10;;;2.00;;
24357;SDS011;13668;52.154;5.580;2022-09-01T05:46:10;2.80;;;1.92;;
24357;SDS011;13668;52.154;5.580;2022-09-01T05:48:37;4.03;;;1.90;;
24357;SDS011;13668;52.154;5.580;2022-09-01T05:51:04;4.47;;;1.80;;
24357;SDS011;13668;52.154;5.580;2022-09-01T05:53:30;4.00;;;1.98;;
24357;SDS011;13668;52.154;5.580;2022-09-01T05:55:58;3.92;;;1.75;;
24357;SDS011;13668;52.154;5.580;2022-09-01T05:58:24;4.05;;;1.63;;
24357;SDS011;13668;52.154;5.580;2022-09-01T06:00:51;1.83;;;1.60;;
24357;SDS011;13668;52.154;5.580;2022-09-01T06:03:18;8.13;;;2.17;;
24357;SDS011;13668;52.154;5.580;2022-09-01T06:05:44;2.78;;;1.70;;
24357;SDS011;13668;52.154;5.580;2022-09-01T06:08:12;4.20;;;1.50;;
24357;SDS011;13668;52.154;5.580;2022-09-01T06:10:39;2.28;;;1.70;;
24357;SDS011;13668;52.154;5.580;2022-09-01T06:13:06;3.30;;;1.67;;
24357;SDS011;13668;52.154;5.580;2022-09-01T06:15:32;2.88;;;1.58;;
24357;SDS011;13668;52.154;5.580;2022-09-01T06:18:00;2.42;;;1.73;;
24357;SDS011;13668;52.154;5.580;2022-09-01T06:20:26;3.47;;;1.95;;
24357;SDS011;13668;52.154;5.580;2022-09-01T06:22:54;4.18;;;1.50;;
24357;SDS011;13668;52.154;5.580;2022-09-01T06:25:20;2.28;;;1.60;;
24357;SDS011;13668;52.154;5.580;2022-09-01T06:27:46;2.70;;;1.40;;
24357;SDS011;13668;52.154;5.580;2022-09-01T06:30:13;2.15;;;1.48;;
24357;SDS011;13668;52.154;5.580;2022-09-01T06:32:41;2.42;;;1.50;;
24357;SDS011;13668;52.154;5.580;2022-09-01T06:35:09;2.13;;;1.58;;
24357;SDS011;13668;52.154;5.580;2022-09-01T06:37:36;2.53;;;1.55;;
24357;SDS011;13668;52.154;5.580;2022-09-01T06:40:02;1.85;;;1.67;;
24357;SDS011;13668;52.154;5.580;2022-09-01T06:42:29;2.13;;;1.55;;
24357;SDS011;13668;52.154;5.580;2022-09-01T06:44:59;3.45;;;1.40;;
24357;SDS011;13668;52.154;5.580;2022-09-01T06:47:25;3.67;;;1.77;;
24357;SDS011;13668;52.154;5.580;2022-09-01T06:49:52;2.30;;;1.30;;
24357;SDS011;13668;52.154;5.580;2022-09-01T06:52:23;1.80;;;1.42;;
24357;SDS011;13668;52.154;5.580;2022-09-01T06:54:49;3.92;;;1.73;;
24357;SDS011;13668;52.154;5.580;2022-09-01T06:57:17;7.35;;;1.40;;
24357;SDS011;13668;52.154;5.580;2022-09-01T06:59:43;2.28;;;1.17;;
24357;SDS011;13668;52.154;5.580;2022-09-01T07:02:09;2.45;;;1.25;;
24357;SDS011;13668;52.154;5.580;2022-09-01T07:04:40;3.17;;;1.10;;
24357;SDS011;13668;52.154;5.580;2022-09-01T07:07:10;1.42;;;1.15;;
24357;SDS011;13668;52.154;5.580;2022-09-01T07:09:36;2.22;;;1.00;;
24357;SDS011;13668;52.154;5.580;2022-09-01T07:12:02;1.67;;;1.10;;
24357;SDS011;13668;52.154;5.580;2022-09-01T07:14:29;1.85;;;1.05;;
24357;SDS011;13668;52.154;5.580;2022-09-01T07:16:55;3.30;;;1.10;;
24357;SDS011;13668;52.154;5.580;2022-09-01T07:19:22;2.72;;;1.00;;
24357;SDS011;13668;52.154;5.580;2022-09-01T07:21:50;1.40;;;0.98;;
24357;SDS011;13668;52.154;5.580;2022-09-01T07:24:16;1.45;;;0.95;;
24357;SDS011;13668;52.154;5.580;2022-09-01T07:26:44;2.25;;;0.73;;
24357;SDS011;13668;52.154;5.580;2022-09-01T07:29:15;2.05;;;0.80;;
24357;SDS011;13668;52.154;5.580;2022-09-01T07:31:41;1.52;;;1.02;;
24357;SDS011;13668;52.154;5.580;2022-09-01T07:34:09;2.88;;;0.93;;
24357;SDS011;13668;52.154;5.580;2022-09-01T07:36:36;2.88;;;1.10;;
24357;SDS011;13668;52.154;5.580;2022-09-01T07:39:03;0.75;;;0.73;;
24357;SDS011;13668;52.154;5.580;2022-09-01T07:41:29;1.27;;;0.80;;
24357;SDS011;13668;52.154;5.580;2022-09-01T07:43:57;1.45;;;0.93;;
24357;SDS011;13668;52.154;5.580;2022-09-01T07:46:24;1.63;;;1.10;;
24357;SDS011;13668;52.154;5.580;2022-09-01T07:48:54;0.80;;;0.70;;
24357;SDS011;13668;52.154;5.580;2022-09-01T07:51:21;1.55;;;0.93;;
24357;SDS011;13668;52.154;5.580;2022-09-01T07:53:47;1.50;;;1.00;;
24357;SDS011;13668;52.154;5.580;2022-09-01T07:56:14;1.75;;;0.80;;
24357;SDS011;13668;52.154;5.580;2022-09-01T07:58:43;4.00;;;0.90;;
24357;SDS011;13668;52.154;5.580;2022-09-01T08:01:14;2.42;;;0.90;;
24357;SDS011;13668;52.154;5.580;2022-09-01T08:03:42;2.58;;;0.88;;
24357;SDS011;13668;52.154;5.580;2022-09-01T08:06:10;3.83;;;1.25;;
24357;SDS011;13668;52.154;5.580;2022-09-01T08:08:36;1.63;;;0.90;;
24357;SDS011;13668;52.154;5.580;2022-09-01T08:11:03;3.38;;;0.90;;
24357;SDS011;13668;52.154;5.580;2022-09-01T08:13:29;2.33;;;1.00;;
24357;SDS011;13668;52.154;5.580;2022-09-01T08:15:55;1.50;;;0.88;;
24357;SDS011;13668;52.154;5.580;2022-09-01T08:18:21;1.27;;;0.90;;
24357;SDS011;13668;52.154;5.580;2022-09-01T08:20:47;2.67;;;1.10;;
24357;SDS011;13668;52.154;5.580;2022-09-01T08:23:14;2.47;;;1.10;;
24357;SDS011;13668;52.154;5.580;2022-09-01T08:25:42;3.20;;;0.90;;
24357;SDS011;13668;52.154;5.580;2022-09-01T08:28:08;2.38;;;0.57;;
24357;SDS011;13668;52.154;5.580;2022-09-01T08:30:38;2.78;;;0.90;;
24357;SDS011;13668;52.154;5.580;2022-09-01T08:33:05;2.67;;;0.77;;
24357;SDS011;13668;52.154;5.580;2022-09-01T08:35:31;1.60;;;0.88;;
24357;SDS011;13668;52.154;5.580;2022-09-01T08:37:57;2.28;;;0.73;;
24357;SDS011;13668;52.154;5.580;2022-09-01T08:40:24;4.82;;;0.98;;
24357;SDS011;13668;52.154;5.580;2022-09-01T08:43:04;3.72;;;1.50;;
24357;SDS011;13668;52.154;5.580;2022-09-01T08:45:35;2.92;;;1.00;;
24357;SDS011;13668;52.154;5.580;2022-09-01T08:48:08;1.67;;;1.00;;
24357;SDS011;13668;52.154;5.580;2022-09-01T08:50:37;1.42;;;0.70;;
24357;SDS011;13668;52.154;5.580;2022-09-01T08:53:10;2.25;;;0.82;;
24357;SDS011;13668;52.154;5.580;2022-09-01T08:55:42;2.85;;;1.20;;
24357;SDS011;13668;52.154;5.580;2022-09-01T08:58:10;1.98;;;0.82;;
24357;SDS011;13668;52.154;5.580;2022-09-01T09:00:37;2.88;;;0.75;;
24357;SDS011;13668;52.154;5.580;2022-09-01T09:05:56;1.63;;;0.60;;
24357;SDS011;13668;52.154;5.580;2022-09-01T09:10:57;1.10;;;0.70;;
24357;SDS011;13668;52.154;5.580;2022-09-01T09:16:09;1.25;;;0.50;;
24357;SDS011;13668;52.154;5.580;2022-09-01T09:21:07;2.50;;;0.43;;
24357;SDS011;13668;52.154;5.580;2022-09-01T09:23:35;2.05;;;0.65;;
24357;SDS011;13668;52.154;5.580;2022-09-01T09:26:13;1.25;;;0.65;;
24357;SDS011;13668;52.154;5.580;2022-09-01T09:28:44;2.15;;;0.47;;
24357;SDS011;13668;52.154;5.580;2022-09-01T09:33:56;3.15;;;0.50;;
24357;SDS011;13668;52.154;5.580;2022-09-01T09:36:23;1.58;;;0.40;;
24357;SDS011;13668;52.154;5.580;2022-09-01T09:41:28;1.73;;;0.45;;
24357;SDS011;13668;52.154;5.580;2022-09-01T09:43:59;1.98;;;0.60;;
24357;SDS011;13668;52.154;5.580;2022-09-01T09:51:37;0.60;;;0.30;;
24357;SDS011;13668;52.154;5.580;2022-09-01T09:56:37;0.40;;;0.40;;
24357;SDS011;13668;52.154;5.580;2022-09-01T09:59:15;0.98;;;0.40;;
24357;SDS011;13668;52.154;5.580;2022-09-01T10:01:41;1.85;;;0.30;;
24357;SDS011;13668;52.154;5.580;2022-09-01T10:04:07;1.92;;;0.40;;
24357;SDS011;13668;52.154;5.580;2022-09-01T10:06:34;3.13;;;0.50;;
24357;SDS011;13668;52.154;5.580;2022-09-01T10:09:03;0.85;;;0.50;;
24357;SDS011;13668;52.154;5.580;2022-09-01T10:11:32;0.55;;;0.38;;
24357;SDS011;13668;52.154;5.580;2022-09-01T10:14:01;1.85;;;0.50;;
24357;SDS011;13668;52.154;5.580;2022-09-01T10:16:30;2.20;;;0.68;;
24357;SDS011;13668;52.154;5.580;2022-09-01T10:18:59;1.17;;;0.45;;
24357;SDS011;13668;52.154;5.580;2022-09-01T10:23:55;1.98;;;0.60;;
24357;SDS011;13668;52.154;5.580;2022-09-01T10:26:23;0.80;;;0.55;;
24357;SDS011;13668;52.154;5.580;2022-09-01T10:31:18;1.25;;;0.52;;
24357;SDS011;13668;52.154;5.580;2022-09-01T10:33:44;2.17;;;0.65;;
24357;SDS011;13668;52.154;5.580;2022-09-01T10:36:10;1.13;;;0.43;;
24357;SDS011;13668;52.154;5.580;2022-09-01T10:38:38;0.50;;;0.32;;
24357;SDS011;13668;52.154;5.580;2022-09-01T10:41:04;1.70;;;0.45;;
24357;SDS011;13668;52.154;5.580;2022-09-01T10:45:59;0.93;;;0.45;;
24357;SDS011;13668;52.154;5.580;2022-09-01T10:48:32;2.95;;;0.52;;
24357;SDS011;13668;52.154;5.580;2022-09-01T10:58:49;1.85;;;0.60;;
24357;SDS011;13668;52.154;5.580;2022-09-01T11:04:07;0.38;;;0.38;;
24357;SDS011;13668;52.154;5.580;2022-09-01T11:06:42;0.82;;;0.30;;
24357;SDS011;13668;52.154;5.580;2022-09-01T11:14:19;1.95;;;0.40;;
24357;SDS011;13668;52.154;5.580;2022-09-01T11:19:43;1.40;;;0.40;;
24357;SDS011;13668;52.154;5.580;2022-09-01T11:27:09;1.40;;;0.43;;
24357;SDS011;13668;52.154;5.580;2022-09-01T11:32:21;1.75;;;0.30;;
24357;SDS011;13668;52.154;5.580;2022-09-01T11:34:49;1.30;;;0.25;;
24357;SDS011;13668;52.154;5.580;2022-09-01T11:37:17;0.77;;;0.50;;
24357;SDS011;13668;52.154;5.580;2022-09-01T11:39:48;0.50;;;0.40;;
24357;SDS011;13668;52.154;5.580;2022-09-01T11:42:57;1.10;;;0.50;;
24357;SDS011;13668;52.154;5.580;2022-09-01T11:45:06;0.60;;;0.47;;
24357;SDS011;13668;52.154;5.580;2022-09-01T11:47:40;1.85;;;0.38;;
24357;SDS011;13668;52.154;5.580;2022-09-01T11:52:58;1.75;;;0.38;;
24357;SDS011;13668;52.154;5.580;2022-09-01T11:57:54;0.57;;;0.47;;
24357;SDS011;13668;52.154;5.580;2022-09-01T12:00:27;1.45;;;0.50;;
24357;SDS011;13668;52.154;5.580;2022-09-01T12:02:54;0.82;;;0.50;;
24357;SDS011;13668;52.154;5.580;2022-09-01T12:05:34;0.88;;;0.47;;
24357;SDS011;13668;52.154;5.580;2022-09-01T12:08:05;0.50;;;0.40;;
24357;SDS011;13668;52.154;5.580;2022-09-01T12:10:38;3.70;;;0.40;;
24357;SDS011;13668;52.154;5.580;2022-09-01T12:13:08;1.52;;;0.50;;
24357;SDS011;13668;52.154;5.580;2022-09-01T12:15:35;0.93;;;0.43;;
24357;SDS011;13668;52.154;5.580;2022-09-01T12:18:24;0.82;;;0.50;;
24357;SDS011;13668;52.154;5.580;2022-09-01T12:20:52;1.33;;;0.77;;
24357;SDS011;13668;52.154;5.580;2022-09-01T12:23:24;1.63;;;0.50;;
24357;SDS011;13668;52.154;5.580;2022-09-01T12:25:51;0.80;;;0.52;;
24357;SDS011;13668;52.154;5.580;2022-09-01T12:28:19;2.97;;;0.55;;
24357;SDS011;13668;52.154;5.580;2022-09-01T12:30:47;2.03;;;0.40;;
24357;SDS011;13668;52.154;5.580;2022-09-01T12:33:17;1.98;;;0.50;;
24357;SDS011;13668;52.154;5.580;2022-09-01T12:35:43;1.67;;;0.52;;
24357;SDS011;13668;52.154;5.580;2022-09-01T12:38:42;1.35;;;0.40;;
24357;SDS011;13668;52.154;5.580;2022-09-01T12:41:01;1.42;;;0.50;;
24357;SDS011;13668;52.154;5.580;2022-09-01T12:43:46;1.85;;;0.50;;
24357;SDS011;13668;52.154;5.580;2022-09-01T12:46:38;2.25;;;0.57;;
24357;SDS011;13668;52.154;5.580;2022-09-01T12:49:14;1.27;;;0.45;;
24357;SDS011;13668;52.154;5.580;2022-09-01T12:51:41;1.63;;;0.73;;
24357;SDS011;13668;52.154;5.580;2022-09-01T12:54:07;0.82;;;0.45;;
24357;SDS011;13668;52.154;5.580;2022-09-01T12:56:38;1.25;;;0.50;;
24357;SDS011;13668;52.154;5.580;2022-09-01T13:01:33;1.13;;;0.70;;
24357;SDS011;13668;52.154;5.580;2022-09-01T13:04:06;8.57;;;0.85;;
24357;SDS011;13668;52.154;5.580;2022-09-01T13:06:36;0.85;;;0.60;;
24357;SDS011;13668;52.154;5.580;2022-09-01T13:09:02;0.88;;;0.40;;
24357;SDS011;13668;52.154;5.580;2022-09-01T13:11:28;1.88;;;0.52;;
24357;SDS011;13668;52.154;5.580;2022-09-01T13:13:54;1.77;;;0.60;;
24357;SDS011;13668;52.154;5.580;2022-09-01T13:16:21;0.80;;;0.47;;
24357;SDS011;13668;52.154;5.580;2022-09-01T13:18:46;1.10;;;0.57;;
24357;SDS011;13668;52.154;5.580;2022-09-01T13:21:12;1.33;;;0.52;;
24357;SDS011;13668;52.154;5.580;2022-09-01T13:23:39;2.40;;;0.77;;
24357;SDS011;13668;52.154;5.580;2022-09-01T13:26:05;1.83;;;0.50;;
24357;SDS011;13668;52.154;5.580;2022-09-01T13:28:31;0.95;;;0.43;;
24357;SDS011;13668;52.154;5.580;2022-09-01T13:30:58;2.08;;;0.52;;
24357;SDS011;13668;52.154;5.580;2022-09-01T13:33:26;2.13;;;0.70;;
24357;SDS011;13668;52.154;5.580;2022-09-01T13:35:52;1.20;;;0.50;;
24357;SDS011;13668;52.154;5.580;2022-09-01T13:38:19;0.57;;;0.32;;
24357;SDS011;13668;52.154;5.580;2022-09-01T13:40:45;1.90;;;0.93;;
24357;SDS011;13668;52.154;5.580;2022-09-01T13:43:12;2.97;;;0.60;;
24357;SDS011;13668;52.154;5.580;2022-09-01T13:45:38;2.35;;;0.68;;
24357;SDS011;13668;52.154;5.580;2022-09-01T13:48:05;0.77;;;0.40;;
24357;SDS011;13668;52.154;5.580;2022-09-01T13:50:31;0.50;;;0.47;;
24357;SDS011;13668;52.154;5.580;2022-09-01T13:52:57;0.45;;;0.43;;
24357;SDS011;13668;52.154;5.580;2022-09-01T13:55:24;2.40;;;0.90;;
24357;SDS011;13668;52.154;5.580;2022-09-01T13:57:51;0.60;;;0.50;;
24357;SDS011;13668;52.154;5.580;2022-09-01T14:00:19;1.83;;;0.70;;
24357;SDS011;13668;52.154;5.580;2022-09-01T14:02:48;3.20;;;0.55;;
24357;SDS011;13668;52.154;5.580;2022-09-01T14:05:18;0.47;;;0.47;;
24357;SDS011;13668;52.154;5.580;2022-09-01T14:07:44;1.45;;;0.50;;
24357;SDS011;13668;52.154;5.580;2022-09-01T14:10:10;35.45;;;3.28;;
24357;SDS011;13668;52.154;5.580;2022-09-01T14:12:38;1.05;;;0.60;;
24357;SDS011;13668;52.154;5.580;2022-09-01T14:15:05;10.57;;;1.33;;
24357;SDS011;13668;52.154;5.580;2022-09-01T14:17:31;1.25;;;0.52;;
24357;SDS011;13668;52.154;5.580;2022-09-01T14:19:57;4.03;;;0.90;;
24357;SDS011;13668;52.154;5.580;2022-09-01T14:22:23;49.38;;;4.75;;
24357;SDS011;13668;52.154;5.580;2022-09-01T14:24:49;25.33;;;2.10;;
24357;SDS011;13668;52.154;5.580;2022-09-01T14:27:16;12.23;;;1.23;;
24357;SDS011;13668;52.154;5.580;2022-09-01T14:29:42;2.65;;;0.80;;
24357;SDS011;13668;52.154;5.580;2022-09-01T14:32:08;2.15;;;0.70;;
24357;SDS011;13668;52.154;5.580;2022-09-01T14:34:34;2.58;;;0.70;;
24357;SDS011;13668;52.154;5.580;2022-09-01T14:37:01;1.25;;;0.60;;
24357;SDS011;13668;52.154;5.580;2022-09-01T14:39:28;5.82;;;0.90;;
24357;SDS011;13668;52.154;5.580;2022-09-01T14:41:54;2.72;;;0.60;;
24357;SDS011;13668;52.154;5.580;2022-09-01T14:44:20;4.07;;;0.50;;
24357;SDS011;13668;52.154;5.580;2022-09-01T14:46:46;1.85;;;0.70;;
24357;SDS011;13668;52.154;5.580;2022-09-01T14:49:13;6.90;;;0.90;;
24357;SDS011;13668;52.154;5.580;2022-09-01T14:51:40;0.70;;;0.50;;
24357;SDS011;13668;52.154;5.580;2022-09-01T14:54:06;1.92;;;0.40;;
24357;SDS011;13668;52.154;5.580;2022-09-01T14:56:32;3.13;;;0.70;;
24357;SDS011;13668;52.154;5.580;2022-09-01T14:58:58;0.90;;;0.50;;
24357;SDS011;13668;52.154;5.580;2022-09-01T15:01:26;1.95;;;0.68;;
24357;SDS011;13668;52.154;5.580;2022-09-01T15:03:52;2.15;;;0.50;;
24357;SDS011;13668;52.154;5.580;2022-09-01T15:06:20;0.40;;;0.40;;
24357;SDS011;13668;52.154;5.580;2022-09-01T15:08:46;2.25;;;0.50;;
24357;SDS011;13668;52.154;5.580;2022-09-01T15:11:14;0.65;;;0.43;;
24357;SDS011;13668;52.154;5.580;2022-09-01T15:13:40;1.67;;;0.50;;
24357;SDS011;13668;52.154;5.580;2022-09-01T15:16:12;0.68;;;0.50;;
24357;SDS011;13668;52.154;5.580;2022-09-01T15:18:38;1.15;;;0.60;;
24357;SDS011;13668;52.154;5.580;2022-09-01T15:21:04;3.75;;;0.52;;
24357;SDS011;13668;52.154;5.580;2022-09-01T15:23:30;4.55;;;0.70;;
24357;SDS011;13668;52.154;5.580;2022-09-01T15:25:56;1.65;;;0.55;;
24357;SDS011;13668;52.154;5.580;2022-09-01T15:28:23;1.88;;;0.60;;
24357;SDS011;13668;52.154;5.580;2022-09-01T15:30:50;1.98;;;0.75;;
24357;SDS011;13668;52.154;5.580;2022-09-01T15:33:16;1.67;;;0.60;;
24357;SDS011;13668;52.154;5.580;2022-09-01T15:35:43;3.08;;;0.70;;
24357;SDS011;13668;52.154;5.580;2022-09-01T15:38:13;1.40;;;0.90;;
24357;SDS011;13668;52.154;5.580;2022-09-01T15:40:40;0.98;;;0.70;;
24357;SDS011;13668;52.154;5.580;2022-09-01T15:43:06;1.63;;;0.70;;
24357;SDS011;13668;52.154;5.580;2022-09-01T15:45:32;2.83;;;0.60;;
24357;SDS011;13668;52.154;5.580;2022-09-01T15:47:59;1.30;;;0.68;;
24357;SDS011;13668;52.154;5.580;2022-09-01T15:50:25;36.50;;;3.63;;
24357;SDS011;13668;52.154;5.580;2022-09-01T15:52:55;2.60;;;0.60;;
24357;SDS011;13668;52.154;5.580;2022-09-01T15:55:23;0.80;;;0.63;;
24357;SDS011;13668;52.154;5.580;2022-09-01T15:57:57;0.95;;;0.40;;
24357;SDS011;13668;52.154;5.580;2022-09-01T16:00:24;1.50;;;0.50;;
24357;SDS011;13668;52.154;5.580;2022-09-01T16:02:51;1.10;;;0.85;;